Time;durP1;ratioP1;P1;durP2;ratioP2;P2;SDS_P1;SDS_P2;PMS_P1;PMS_P2;Temp;Humidity;BMP_temperature;BMP_pressure;BME280_temperature;BME280_humidity;BME280_pressure;Samples;Min_cycle;Max_cycle;Signal;HPM_P1;HPM_P2
2021/12/23 00:01:48;;;;;;;51.35;24.92;;;;;;;-3.95;100.00;102023.47;4793744;30;20173;-85
2021/12/23 00:04:13;;;;;;;52.90;24.85;;;;;;;-3.91;100.00;102019.28;4778411;30;20184;-85
2021/12/23 00:06:41;;;;;;;48.53;25.10;;;;;;;-3.92;100.00;102014.84;4777311;30;20272;-86
2021/12/23 00:09:07;;;;;;;47.42;26.10;;;;;;;-3.88;100.00;102001.06;4792576;29;20315;-87
2021/12/23 00:11:32;;;;;;;56.88;26.08;;;;;;;-3.89;100.00;102000.97;4775865;30;20260;-86
2021/12/23 00:14:10;;;;;;;58.83;27.33;;;;;;;-3.83;100.00;102001.22;4775436;30;20181;-86
2021/12/23 00:19:36;;;;;;;56.22;25.83;;;;;;;-3.88;100.00;101980.09;4790452;29;20200;-87
2021/12/23 00:25:04;;;;;;;49.50;25.98;;;;;;;-3.89;100.00;101978.34;4735429;30;20187;-85
2021/12/23 00:27:30;;;;;;;54.58;26.67;;;;;;;-3.99;100.00;101976.19;4775923;30;20209;-85
2021/12/23 00:29:55;;;;;;;57.00;26.52;;;;;;;-3.92;100.00;101974.69;4787565;29;20219;-84
2021/12/23 00:32:20;;;;;;;46.25;24.52;;;;;;;-3.91;100.00;101981.69;4786688;30;20626;-84
2021/12/23 00:34:46;;;;;;;52.95;25.20;;;;;;;-3.89;100.00;101975.72;4771335;30;20184;-84
2021/12/23 00:37:12;;;;;;;51.45;24.75;;;;;;;-3.88;100.00;101969.63;4771251;30;20197;-84
2021/12/23 00:39:38;;;;;;;51.50;25.17;;;;;;;-3.79;100.00;101977.84;4786899;29;20204;-85
2021/12/23 00:42:08;;;;;;;54.00;25.77;;;;;;;-3.79;100.00;101963.88;4786901;29;20181;-85
2021/12/23 00:44:35;;;;;;;46.22;24.23;;;;;;;-3.84;100.00;101962.81;4773074;30;20180;-85
2021/12/23 00:47:01;;;;;;;48.08;22.73;;;;;;;-3.83;100.00;101957.59;4773128;30;20193;-85
2021/12/23 00:49:26;;;;;;;46.80;23.83;;;;;;;-3.74;100.00;101960.59;4787631;29;20295;-84
2021/12/23 00:51:53;;;;;;;49.38;24.65;;;;;;;-3.78;100.00;101957.81;4773238;30;20181;-84
2021/12/23 00:54:19;;;;;;;47.35;24.73;;;;;;;-3.75;100.00;101957.91;4774279;30;20185;-85
2021/12/23 00:56:48;;;;;;;52.30;24.83;;;;;;;-3.80;100.00;101952.50;4773791;30;20600;-84
2021/12/23 00:59:14;;;;;;;50.28;24.90;;;;;;;-3.79;100.00;101940.28;4800887;29;20232;-85
2021/12/23 01:01:39;;;;;;;49.30;24.70;;;;;;;-3.79;100.00;101935.06;4770004;30;20712;-85
2021/12/23 01:04:05;;;;;;;54.58;26.40;;;;;;;-3.84;100.00;101940.13;4769956;30;20544;-86
2021/12/23 01:06:30;;;;;;;46.67;24.77;;;;;;;-3.78;100.00;101929.91;4786097;30;20184;-86
2021/12/23 01:08:55;;;;;;;44.63;25.08;;;;;;;-3.79;100.00;101935.94;4754595;30;20180;-85
2021/12/23 01:11:21;;;;;;;47.13;25.35;;;;;;;-3.79;100.00;101940.28;4785873;29;20213;-86
2021/12/23 01:14:04;;;;;;;44.95;23.77;;;;;;;-3.68;100.00;101940.72;4755350;30;20281;-85
2021/12/23 01:17:42;;;;;;;44.45;23.48;;;;;;;-3.63;100.00;101931.28;4784552;29;20514;-85
2021/12/23 01:19:25;;;;;;;50.25;24.67;;;;;;;-3.71;100.00;101932.75;4788778;29;20647;-86
2021/12/23 01:21:51;;;;;;;49.75;24.95;;;;;;;-3.75;100.00;101929.09;4784580;29;20185;-86
2021/12/23 01:24:17;;;;;;;47.45;23.35;;;;;;;-3.72;100.00;101918.75;4769905;30;20234;-86
2021/12/23 01:26:42;;;;;;;46.92;25.17;;;;;;;-3.78;100.00;101922.03;4769557;30;20275;-85
2021/12/23 01:29:08;;;;;;;49.03;25.20;;;;;;;-3.80;100.00;101908.00;4769686;29;20189;-86
2021/12/23 01:31:39;;;;;;;45.92;24.08;;;;;;;-3.74;100.00;101905.63;4786488;30;20180;-86
2021/12/23 01:34:06;;;;;;;47.47;24.52;;;;;;;-3.76;100.00;101908.97;4769696;30;20570;-86
2021/12/23 01:36:32;;;;;;;47.80;25.15;;;;;;;-3.77;100.00;101897.63;4770727;30;20829;-86
2021/12/23 01:38:57;;;;;;;50.40;26.23;;;;;;;-3.81;100.00;101900.97;4772888;29;20298;-86
2021/12/23 01:41:25;;;;;;;43.30;24.27;;;;;;;-3.76;100.00;101906.38;4773500;30;20193;-86
2021/12/23 01:43:51;;;;;;;48.03;24.73;;;;;;;-3.77;100.00;101907.22;4789774;30;20177;-87
2021/12/23 01:46:18;;;;;;;46.85;25.17;;;;;;;-3.74;100.00;101907.31;4788242;29;20206;-86
2021/12/23 01:48:44;;;;;;;42.20;23.13;;;;;;;-3.61;100.00;101908.66;4802781;29;20181;-86
2021/12/23 01:51:09;;;;;;;48.78;25.67;;;;;;;-3.61;100.00;101906.03;4773377;30;20204;-86
2021/12/23 01:53:35;;;;;;;45.03;25.23;;;;;;;-3.56;100.00;101894.03;4773450;30;20706;-86
2021/12/23 01:56:00;;;;;;;47.33;23.95;;;;;;;-3.55;100.00;101907.16;4773530;30;20176;-86
2021/12/23 01:58:26;;;;;;;45.33;25.35;;;;;;;-3.60;100.00;101895.63;4802491;29;20617;-86
2021/12/23 02:00:52;;;;;;;46.33;24.45;;;;;;;-3.58;100.00;101885.22;4787990;29;20215;-86
2021/12/23 02:03:18;;;;;;;47.65;25.92;;;;;;;-3.58;100.00;101882.59;4789345;30;20192;-86
2021/12/23 02:05:44;;;;;;;42.85;24.08;;;;;;;-3.61;100.00;101869.38;4772965;30;20189;-86
2021/12/23 02:08:10;;;;;;;45.42;23.95;;;;;;;-3.62;100.00;101875.47;4758426;30;20256;-86
2021/12/23 02:10:36;;;;;;;43.55;24.25;;;;;;;-3.48;100.00;101866.34;4772710;30;20201;-87
2021/12/23 02:13:02;;;;;;;47.78;25.08;;;;;;;-3.59;100.00;101860.75;4788218;30;20542;-87
2021/12/23 02:15:28;;;;;;;41.83;23.95;;;;;;;-3.55;100.00;101862.63;4789086;30;20177;-86
2021/12/23 02:17:54;;;;;;;46.38;25.95;;;;;;;-3.61;100.00;101861.53;4772352;30;20551;-86
2021/12/23 02:20:23;;;;;;;42.85;23.27;;;;;;;-3.55;100.00;101856.50;4787498;29;20692;-86
2021/12/23 02:22:49;;;;;;;47.15;25.83;;;;;;;-3.57;100.00;101855.56;4787844;30;20196;-86
2021/12/23 02:25:16;;;;;;;43.33;24.70;;;;;;;-3.52;100.00;101848.75;4772922;30;20205;-87
2021/12/23 02:27:44;;;;;;;42.78;25.55;;;;;;;-3.60;100.00;101829.28;4788345;30;20192;-86
2021/12/23 02:30:14;;;;;;;47.45;25.42;;;;;;;-3.55;100.00;101831.19;4802038;29;20199;-87
2021/12/23 02:32:40;;;;;;;41.75;23.45;;;;;;;-3.63;100.00;101826.53;4772916;30;20668;-86
2021/12/23 02:35:10;;;;;;;41.90;23.30;;;;;;;-3.64;100.00;101822.13;4772434;30;20197;-86
2021/12/23 02:37:35;;;;;;;45.13;24.70;;;;;;;-3.60;100.00;101808.31;4788458;30;20193;-85
2021/12/23 02:40:02;;;;;;;41.85;24.00;;;;;;;-3.57;100.00;101803.19;4787419;29;20660;-86
2021/12/23 02:42:28;;;;;;;48.58;25.08;;;;;;;-3.70;100.00;101782.63;4788242;30;20605;-85
2021/12/23 02:44:54;;;;;;;43.92;23.88;;;;;;;-3.56;100.00;101786.63;4787366;30;20183;-86
2021/12/23 02:47:20;;;;;;;45.17;25.17;;;;;;;-3.61;100.00;101786.47;4771501;30;20184;-85
2021/12/23 02:49:45;;;;;;;44.28;25.05;;;;;;;-3.54;100.00;101771.88;4801397;29;20742;-85
2021/12/23 02:52:11;;;;;;;44.95;24.35;;;;;;;-3.58;100.00;101783.97;4772518;30;20233;-86
2021/12/23 02:54:36;;;;;;;40.10;23.48;;;;;;;-3.61;100.00;101775.09;4765058;30;20562;-85
2021/12/23 02:57:02;;;;;;;43.88;23.85;;;;;;;-3.64;100.00;101764.53;4787448;30;20245;-85
2021/12/23 02:59:28;;;;;;;45.45;23.85;;;;;;;-3.63;100.00;101761.97;4772339;29;20660;-85
2021/12/23 03:01:53;;;;;;;40.13;23.38;;;;;;;-3.66;100.00;101754.00;4772429;30;20286;-84
2021/12/23 03:04:19;;;;;;;43.08;23.63;;;;;;;-3.62;100.00;101744.53;4771856;29;20291;-85
2021/12/23 03:06:44;;;;;;;42.00;23.00;;;;;;;-3.61;100.00;101738.44;4786613;29;20275;-85
2021/12/23 03:09:10;;;;;;;42.80;24.30;;;;;;;-3.61;100.00;101733.19;4771699;29;20542;-85
2021/12/23 03:11:35;;;;;;;45.45;23.08;;;;;;;-3.56;100.00;101729.03;4786979;30;20184;-85
2021/12/23 03:14:01;;;;;;;42.42;23.58;;;;;;;-3.56;100.00;101731.63;4787298;30;20323;-85
2021/12/23 03:16:33;;;;;;;46.63;24.60;;;;;;;-3.59;100.00;101727.16;4772023;30;20246;-84
2021/12/23 03:18:58;;;;;;;47.78;24.10;;;;;;;-3.60;100.00;101727.13;4771341;29;20219;-85
2021/12/23 03:21:24;;;;;;;42.90;23.90;;;;;;;-3.58;100.00;101720.22;4771706;30;20181;-85
2021/12/23 03:23:51;;;;;;;39.50;22.33;;;;;;;-3.61;100.00;101702.69;4785989;30;20207;-85
2021/12/23 03:26:17;;;;;;;43.35;24.63;;;;;;;-3.58;100.00;101705.38;4786672;29;20181;-85
2021/12/23 03:28:42;;;;;;;46.38;24.45;;;;;;;-3.58;100.00;101700.16;4771068;30;20199;-85
2021/12/23 03:31:08;;;;;;;46.58;23.73;;;;;;;-3.54;100.00;101691.56;4787843;29;20197;-85
2021/12/23 03:33:33;;;;;;;46.67;24.65;;;;;;;-3.47;100.00;101683.91;4772043;30;20192;-85
2021/12/23 03:36:00;;;;;;;41.90;22.88;;;;;;;-3.47;100.00;101674.31;4771396;30;20187;-84
2021/12/23 03:38:26;;;;;;;47.42;24.52;;;;;;;-3.50;100.00;101676.81;4771045;30;20303;-85
2021/12/23 03:40:52;;;;;;;43.58;22.50;;;;;;;-3.46;100.00;101672.56;4771085;30;20219;-85
2021/12/23 03:43:19;;;;;;;43.13;24.02;;;;;;;-3.39;100.00;101669.31;4771468;30;20185;-85
2021/12/23 03:45:46;;;;;;;43.10;23.83;;;;;;;-3.49;100.00;101668.13;4771158;30;20187;-85
2021/12/23 03:48:14;;;;;;;45.83;24.63;;;;;;;-3.52;100.00;101658.44;4770633;30;20213;-85
2021/12/23 03:50:40;;;;;;;41.05;23.48;;;;;;;-3.45;100.00;101658.66;4785960;30;20205;-85
2021/12/23 03:53:06;;;;;;;42.17;23.55;;;;;;;-3.47;100.00;101645.50;4786877;30;20184;-84
2021/12/23 03:55:32;;;;;;;44.75;22.80;;;;;;;-3.50;100.00;101644.50;4785990;29;20237;-84
2021/12/23 03:57:57;;;;;;;44.47;24.10;;;;;;;-3.52;100.00;101636.56;4770712;30;20547;-84
2021/12/23 04:00:23;;;;;;;48.33;23.70;;;;;;;-3.47;100.00;101640.25;4785411;29;20224;-84
2021/12/23 04:02:50;;;;;;;43.72;23.35;;;;;;;-3.46;100.00;101643.75;4771011;30;20353;-84
2021/12/23 04:05:16;;;;;;;40.88;22.90;;;;;;;-3.42;100.00;101624.69;4771085;30;20191;-84
2021/12/23 04:07:41;;;;;;;43.38;22.45;;;;;;;-3.45;100.00;101627.22;4770505;30;20184;-85
2021/12/23 04:10:09;;;;;;;38.38;21.95;;;;;;;-3.32;100.00;101625.03;4786830;29;20221;-84
2021/12/23 04:12:35;;;;;;;43.47;23.45;;;;;;;-3.38;100.00;101610.84;4785713;30;20244;-84
2021/12/23 04:15:01;;;;;;;46.47;22.70;;;;;;;-3.42;100.00;101601.97;4770795;30;20560;-85
2021/12/23 04:17:26;;;;;;;40.67;23.75;;;;;;;-3.40;100.00;101597.69;4785444;30;20193;-85
2021/12/23 04:19:52;;;;;;;47.53;23.13;;;;;;;-3.40;100.00;101594.19;4770527;30;20260;-86
2021/12/23 04:22:17;;;;;;;40.83;22.73;;;;;;;-3.38;100.00;101592.50;4785826;30;20259;-85
2021/12/23 04:24:43;;;;;;;45.38;23.58;;;;;;;-3.36;100.00;101588.19;4785635;30;20191;-85
2021/12/23 04:27:08;;;;;;;40.05;21.55;;;;;;;-3.37;100.00;101582.06;4785571;30;20192;-85
2021/12/23 04:29:35;;;;;;;42.92;22.90;;;;;;;-3.29;100.00;101591.91;4770953;30;20205;-85
2021/12/23 04:32:01;;;;;;;44.10;24.58;;;;;;;-3.36;100.00;101583.84;4787076;30;20181;-85
2021/12/23 04:34:27;;;;;;;40.20;23.33;;;;;;;-3.37;100.00;101574.22;4770757;30;20604;-85
2021/12/23 04:36:53;;;;;;;41.67;22.80;;;;;;;-3.35;100.00;101559.41;4785104;30;20176;-85
2021/12/23 04:39:19;;;;;;;39.58;22.02;;;;;;;-3.34;100.00;101550.72;4770548;29;20221;-85
2021/12/23 04:41:45;;;;;;;43.67;22.65;;;;;;;-3.29;100.00;101565.69;4785470;29;20203;-85
2021/12/23 04:44:10;;;;;;;39.25;22.08;;;;;;;-3.25;100.00;101552.72;4785645;29;20177;-86
2021/12/23 04:46:36;;;;;;;39.20;21.92;;;;;;;-3.28;100.00;101533.38;4786314;30;20610;-86
2021/12/23 04:49:01;;;;;;;37.47;22.60;;;;;;;-3.24;100.00;101536.16;4785975;29;20284;-85
2021/12/23 04:51:27;;;;;;;42.17;22.95;;;;;;;-3.18;100.00;101536.31;4770623;30;20732;-86
2021/12/23 04:53:52;;;;;;;39.72;21.77;;;;;;;-3.16;100.00;101544.25;4785133;29;20196;-85
2021/12/23 04:56:18;;;;;;;38.65;22.45;;;;;;;-3.21;100.00;101544.13;4786485;30;20193;-85
2021/12/23 04:58:44;;;;;;;39.13;21.92;;;;;;;-3.15;100.00;101538.16;4777717;30;20278;-86
2021/12/23 05:01:20;;;;;;;40.42;22.52;;;;;;;-3.15;100.00;101546.91;4770406;30;20263;-86
2021/12/23 05:03:47;;;;;;;39.05;21.40;;;;;;;-3.12;100.00;101549.63;4771977;30;20228;-85
2021/12/23 05:06:16;;;;;;;41.17;22.23;;;;;;;-3.08;100.00;101540.13;4774135;30;20177;-85
2021/12/23 05:08:42;;;;;;;39.53;21.88;;;;;;;-3.11;100.00;101540.00;4788799;30;20200;-85
2021/12/23 05:11:07;;;;;;;39.00;21.45;;;;;;;-3.09;100.00;101533.09;4789780;29;20197;-85
2021/12/23 05:13:33;;;;;;;37.13;21.30;;;;;;;-3.12;100.00;101526.03;4789193;30;20570;-86
2021/12/23 05:15:58;;;;;;;42.08;22.95;;;;;;;-3.12;100.00;101523.41;4790090;30;20179;-85
2021/12/23 05:18:24;;;;;;;36.53;21.95;;;;;;;-3.12;100.00;101507.69;4788880;29;20180;-85
2021/12/23 05:20:49;;;;;;;38.10;21.33;;;;;;;-3.10;100.00;101510.34;4773789;30;20231;-86
2021/12/23 05:23:15;;;;;;;34.53;21.17;;;;;;;-3.05;100.00;101516.59;4774324;30;20242;-85
2021/12/23 05:25:41;;;;;;;33.28;20.58;;;;;;;-2.99;100.00;101518.53;4774040;30;20863;-85
2021/12/23 05:28:06;;;;;;;35.55;21.10;;;;;;;-2.95;100.00;101510.78;4772204;30;20200;-84
2021/12/23 05:30:31;;;;;;;34.90;21.55;;;;;;;-2.88;99.69;101484.75;4770697;30;20208;-84
2021/12/23 05:32:57;;;;;;;35.42;20.70;;;;;;;-2.95;99.75;101474.09;4770413;30;20731;-84
2021/12/23 05:35:24;;;;;;;35.47;21.20;;;;;;;-2.93;99.87;101475.00;4787658;30;20180;-84
2021/12/23 05:37:50;;;;;;;37.08;20.88;;;;;;;-2.92;99.30;101474.16;4786730;30;20207;-84
2021/12/23 05:40:19;;;;;;;35.20;20.33;;;;;;;-2.96;99.46;101453.94;4770356;30;20213;-83
2021/12/23 05:42:45;;;;;;;39.25;20.33;;;;;;;-2.99;99.14;101446.00;4771449;30;20230;-84
2021/12/23 05:45:11;;;;;;;33.38;20.08;;;;;;;-2.97;99.44;101432.94;4786198;30;20189;-84
2021/12/23 05:47:38;;;;;;;33.90;20.52;;;;;;;-2.97;99.57;101435.56;4785299;30;20177;-84
2021/12/23 05:50:04;;;;;;;33.47;20.70;;;;;;;-2.98;99.43;101432.03;4770110;30;20583;-84
2021/12/23 05:52:29;;;;;;;32.53;19.02;;;;;;;-3.00;99.66;101444.22;4770218;30;20173;-84
2021/12/23 05:54:56;;;;;;;36.83;20.80;;;;;;;-2.89;99.71;101460.22;4771003;30;20192;-84
2021/12/23 05:57:21;;;;;;;38.47;22.63;;;;;;;-2.82;99.29;101429.81;4785132;30;20233;-84
2021/12/23 05:59:46;;;;;;;32.40;19.92;;;;;;;-2.96;99.12;101429.47;4770075;30;20216;-84
2021/12/23 06:02:12;;;;;;;31.95;19.33;;;;;;;-2.92;99.33;101416.47;4787771;30;20643;-84
2021/12/23 06:04:37;;;;;;;34.50;21.00;;;;;;;-2.99;99.02;101401.44;4786609;30;20652;-86
2021/12/23 06:07:03;;;;;;;34.53;20.33;;;;;;;-2.95;99.44;101394.56;4770491;30;20181;-86
2021/12/23 06:09:28;;;;;;;32.63;20.13;;;;;;;-2.95;99.42;101392.81;4770868;30;20200;-86
2021/12/23 06:11:54;;;;;;;35.78;20.70;;;;;;;-2.88;99.22;101393.84;4770689;30;20767;-87
2021/12/23 06:14:21;;;;;;;36.97;20.52;;;;;;;-2.95;98.68;101377.09;4786425;30;20176;-87
2021/12/23 06:16:46;;;;;;;34.17;19.85;;;;;;;-2.91;99.17;101380.66;4770082;30;20213;-86
2021/12/23 06:19:12;;;;;;;35.80;20.08;;;;;;;-2.92;99.04;101374.53;4770220;29;20309;-85
2021/12/23 06:21:37;;;;;;;33.45;19.05;;;;;;;-2.93;99.46;101366.63;4769991;30;20203;-86
2021/12/23 06:24:04;;;;;;;33.58;20.27;;;;;;;-2.91;99.38;101378.94;4773518;29;20187;-87
2021/12/23 06:26:30;;;;;;;32.00;19.50;;;;;;;-2.87;99.04;101361.53;4773626;30;20586;-86
2021/12/23 06:28:55;;;;;;;32.97;19.48;;;;;;;-2.92;98.74;101352.66;4787968;29;20203;-86
2021/12/23 06:31:21;;;;;;;29.77;18.55;;;;;;;-2.91;98.94;101351.81;4788315;29;20196;-85
2021/12/23 06:33:46;;;;;;;31.33;19.48;;;;;;;-2.83;99.01;101363.38;4788004;29;20249;-85
2021/12/23 06:36:13;;;;;;;32.75;19.67;;;;;;;-2.82;99.07;101357.31;4773612;30;20644;-85
2021/12/23 06:38:40;;;;;;;30.95;19.45;;;;;;;-2.76;98.85;101365.28;4787612;29;20253;-87
2021/12/23 06:41:06;;;;;;;33.75;18.85;;;;;;;-2.74;98.76;101358.34;4778511;30;20205;-84
2021/12/23 06:43:31;;;;;;;33.45;20.38;;;;;;;-2.71;98.65;101353.22;4774540;29;20620;-86
2021/12/23 06:45:56;;;;;;;33.63;19.90;;;;;;;-2.71;98.70;101360.19;4773435;30;20181;-86
2021/12/23 06:48:22;;;;;;;31.42;19.55;;;;;;;-2.76;98.38;101357.44;4753045;29;20328;-86
2021/12/23 06:50:53;;;;;;;28.48;17.77;;;;;;;-2.84;98.19;101350.22;4795812;29;20208;-85
2021/12/23 06:53:19;;;;;;;33.00;19.92;;;;;;;-2.76;98.56;101338.19;4811058;29;20255;-85
2021/12/23 06:55:44;;;;;;;29.48;18.70;;;;;;;-2.79;97.83;101333.78;4806016;29;20235;-87
2021/12/23 06:58:09;;;;;;;34.38;20.25;;;;;;;-2.78;98.16;101340.78;4791430;29;20188;-85
2021/12/23 07:00:35;;;;;;;28.50;18.85;;;;;;;-2.72;97.81;101334.81;4791541;29;20216;-85
2021/12/23 07:03:00;;;;;;;33.35;20.45;;;;;;;-2.72;97.79;101334.81;4790915;29;20184;-85
2021/12/23 07:05:26;;;;;;;31.40;20.08;;;;;;;-2.76;97.89;101331.22;4808210;29;20297;-85
2021/12/23 07:10:43;;;;;;;32.17;19.92;;;;;;;-2.68;97.26;101338.41;4807391;29;20238;-85
2021/12/23 07:13:09;;;;;;;33.30;19.98;;;;;;;-2.59;97.90;101349.97;4806984;29;20176;-86
2021/12/23 07:15:36;;;;;;;33.17;19.75;;;;;;;-2.61;97.45;101335.94;4803979;29;20184;-86
2021/12/23 07:18:01;;;;;;;33.63;19.35;;;;;;;-2.62;97.95;101322.81;4780677;30;20185;-86
2021/12/23 07:20:28;;;;;;;33.63;19.92;;;;;;;-2.55;97.66;101330.84;4782847;29;20697;-86
2021/12/23 07:22:55;;;;;;;33.22;19.67;;;;;;;-2.51;97.25;101318.69;4791356;29;20237;-86
2021/12/23 07:25:20;;;;;;;32.85;20.80;;;;;;;-2.62;97.06;101323.69;4805750;29;20213;-87
2021/12/23 07:27:47;;;;;;;37.47;20.40;;;;;;;-2.66;97.21;101302.59;4772635;30;20247;-86
2021/12/23 07:30:15;;;;;;;31.20;19.02;;;;;;;-2.60;96.99;101311.50;4773109;30;20249;-86
2021/12/23 07:32:42;;;;;;;30.65;19.60;;;;;;;-2.52;97.46;101317.78;4778941;29;20192;-86
2021/12/23 07:35:08;;;;;;;29.95;18.70;;;;;;;-2.46;97.12;101318.78;4805716;29;20231;-87
2021/12/23 07:37:35;;;;;;;32.88;20.20;;;;;;;-2.48;97.64;101329.25;4806559;29;20223;-87
2021/12/23 07:40:01;;;;;;;32.28;19.50;;;;;;;-2.53;97.33;101316.03;4805530;29;20654;-87
2021/12/23 07:42:29;;;;;;;30.98;19.45;;;;;;;-2.49;96.58;101309.13;4790774;29;20314;-88
2021/12/23 07:44:54;;;;;;;28.67;18.70;;;;;;;-2.51;97.04;101308.19;4790789;29;20662;-86
2021/12/23 07:47:20;;;;;;;31.95;19.60;;;;;;;-2.52;96.80;101293.28;4791144;29;20180;-85
2021/12/23 07:49:45;;;;;;;28.05;18.92;;;;;;;-2.45;96.94;101286.44;4784663;30;20283;-85
2021/12/23 07:52:11;;;;;;;30.77;18.25;;;;;;;-2.45;96.57;101295.19;4791999;30;20169;-87
2021/12/23 07:54:37;;;;;;;30.00;18.75;;;;;;;-2.50;96.90;101287.22;4780289;29;20176;-87
2021/12/23 07:57:03;;;;;;;29.38;18.98;;;;;;;-2.50;97.23;101267.97;4806558;29;20191;-86
2021/12/23 07:59:30;;;;;;;29.05;19.38;;;;;;;-2.40;96.69;101269.97;4804739;29;20255;-86
2021/12/23 08:01:56;;;;;;;32.30;20.02;;;;;;;-2.39;96.94;101274.34;4805044;29;20212;-86
2021/12/23 08:04:22;;;;;;;30.88;18.90;;;;;;;-2.36;97.14;101260.41;4807299;29;20203;-86
2021/12/23 08:06:54;;;;;;;31.08;19.50;;;;;;;-2.37;96.89;101270.00;4789847;29;20193;-85
2021/12/23 08:09:19;;;;;;;31.90;19.00;;;;;;;-2.32;96.95;101265.78;4804725;29;20225;-87
2021/12/23 08:11:45;;;;;;;32.88;19.67;;;;;;;-2.33;96.72;101260.50;4820369;29;20200;-86
2021/12/23 08:14:10;;;;;;;33.55;20.02;;;;;;;-2.37;96.55;101238.53;4790073;29;20184;-87
2021/12/23 08:16:35;;;;;;;33.15;19.40;;;;;;;-2.39;96.46;101235.00;4805035;29;20689;-87
2021/12/23 08:19:02;;;;;;;31.50;19.95;;;;;;;-2.31;96.50;101233.41;4809626;29;20181;-85
2021/12/23 08:21:28;;;;;;;31.73;20.00;;;;;;;-2.35;96.83;101242.06;4820880;29;20191;-84
2021/12/23 08:23:54;;;;;;;34.63;20.27;;;;;;;-2.34;96.70;101248.19;4814454;29;20188;-84
2021/12/23 08:26:27;;;;;;;32.10;19.67;;;;;;;-2.26;97.04;101274.63;4787458;30;20173;-85
2021/12/23 08:28:52;;;;;;;31.38;19.27;;;;;;;-2.26;97.46;101272.88;4788096;30;20169;-84
2021/12/23 08:31:17;;;;;;;32.47;19.92;;;;;;;-2.24;96.56;101275.53;4775094;30;20223;-86
2021/12/23 08:33:43;;;;;;;31.10;20.25;;;;;;;-2.29;96.46;101264.94;4806839;29;20219;-88
2021/12/23 08:36:08;;;;;;;28.63;18.17;;;;;;;-2.26;96.08;101257.13;4775333;30;20176;-85
2021/12/23 08:38:34;;;;;;;35.42;19.92;;;;;;;-2.24;96.32;101255.41;4775765;30;20630;-86
2021/12/23 08:40:59;;;;;;;34.95;20.05;;;;;;;-2.25;96.14;101258.00;4804335;29;20236;-86
2021/12/23 08:43:25;;;;;;;31.40;20.17;;;;;;;-2.32;95.86;101255.28;4804064;29;20176;-87
2021/12/23 08:45:50;;;;;;;30.70;18.83;;;;;;;-2.29;95.92;101241.34;4771526;30;20234;-87
2021/12/23 08:48:16;;;;;;;36.38;20.77;;;;;;;-2.31;95.57;101233.41;4801670;29;20209;-86
2021/12/23 08:50:41;;;;;;;31.55;19.48;;;;;;;-2.35;95.60;101233.31;4772094;30;20220;-86
2021/12/23 08:53:06;;;;;;;31.73;19.73;;;;;;;-2.35;95.71;101225.44;4773298;30;20180;-85
2021/12/23 08:55:33;;;;;;;32.88;19.27;;;;;;;-2.31;95.60;101219.41;4787470;29;20196;-85
2021/12/23 08:58:03;;;;;;;29.60;19.40;;;;;;;-2.30;95.47;101210.69;4771510;30;20187;-85
2021/12/23 09:00:29;;;;;;;31.85;19.40;;;;;;;-2.30;95.29;101202.81;4786623;29;20220;-87
2021/12/23 09:02:55;;;;;;;33.63;19.67;;;;;;;-2.32;95.37;101196.63;4771811;30;20181;-85
2021/12/23 09:05:20;;;;;;;30.10;20.00;;;;;;;-2.32;94.81;101188.75;4786227;29;20246;-86
2021/12/23 09:07:47;;;;;;;29.63;19.27;;;;;;;-2.32;95.24;101178.28;4771427;30;20189;-85
2021/12/23 09:10:13;;;;;;;30.85;19.80;;;;;;;-2.33;95.39;101187.00;4786291;29;20197;-86
2021/12/23 09:12:38;;;;;;;31.02;18.27;;;;;;;-2.29;95.49;101192.34;4772353;30;20193;-85
2021/12/23 09:15:05;;;;;;;34.13;19.35;;;;;;;-2.30;95.38;101202.81;4786775;29;20186;-86
2021/12/23 09:17:30;;;;;;;32.22;18.67;;;;;;;-2.28;94.88;101199.34;4771554;30;20549;-87
2021/12/23 09:19:56;;;;;;;35.03;20.23;;;;;;;-2.26;94.98;101195.88;4805022;29;20239;-84
2021/12/23 09:22:22;;;;;;;28.17;18.38;;;;;;;-2.22;94.84;101197.72;4788010;30;20188;-85
2021/12/23 09:24:48;;;;;;;30.63;18.80;;;;;;;-2.17;94.78;101196.94;4786284;29;20179;-85
2021/12/23 09:34:59;;;;;;;30.27;19.55;;;;;;;-2.01;94.40;101206.03;4806711;29;20610;-86
2021/12/23 09:37:26;;;;;;;28.20;18.65;;;;;;;-2.02;94.15;101191.09;4804841;29;20200;-85
2021/12/23 09:39:57;;;;;;;29.95;18.95;;;;;;;-2.08;94.33;101188.34;4789887;29;20258;-84
2021/12/23 09:42:25;;;;;;;28.30;18.00;;;;;;;-2.01;93.25;101181.47;4792417;29;20192;-85
2021/12/23 09:44:56;;;;;;;30.95;19.00;;;;;;;-2.12;93.79;101168.16;4808271;29;20176;-86
2021/12/23 09:47:34;;;;;;;27.90;17.88;;;;;;;-2.11;93.28;101159.44;4790275;29;20180;-85
2021/12/23 09:50:03;;;;;;;30.27;18.15;;;;;;;-2.07;93.87;101169.16;4789404;29;20706;-85
2021/12/23 09:52:31;;;;;;;27.35;18.20;;;;;;;-2.07;93.24;101159.53;4788776;29;20244;-86
2021/12/23 09:55:00;;;;;;;31.52;18.88;;;;;;;-2.05;93.09;101150.81;4788961;29;20188;-86
2021/12/23 09:57:26;;;;;;;28.20;17.98;;;;;;;-2.01;93.57;101137.75;4790022;29;20192;-86
2021/12/23 09:59:51;;;;;;;31.13;18.48;;;;;;;-1.99;93.30;101129.88;4822789;29;20290;-86
2021/12/23 10:02:17;;;;;;;31.15;18.58;;;;;;;-2.07;93.32;101129.75;4792231;29;20538;-86
2021/12/23 10:04:42;;;;;;;27.23;18.05;;;;;;;-2.07;92.98;101117.50;4792803;29;20192;-85
2021/12/23 10:07:08;;;;;;;29.40;18.70;;;;;;;-2.02;93.41;101099.22;4778074;29;20199;-85
2021/12/23 10:09:48;;;;;;;28.55;18.13;;;;;;;-1.98;93.21;101095.78;4808327;29;20203;-85
2021/12/23 10:31:09;;;;;;;27.45;18.52;;;;;;;-1.98;93.85;100982.03;4809423;29;20200;-87
2021/12/23 10:33:50;;;;;;;29.00;18.42;;;;;;;-1.97;93.33;100984.69;4808982;29;20192;-83
2021/12/23 10:39:20;;;;;;;32.67;19.25;;;;;;;-1.94;93.36;100962.84;4792912;29;20242;-85
2021/12/23 10:41:46;;;;;;;31.00;18.90;;;;;;;-1.89;93.13;100961.16;4792862;29;20168;-85
2021/12/23 10:44:11;;;;;;;30.63;19.52;;;;;;;-1.74;93.44;100942.09;4777667;29;20255;-85
2021/12/23 10:46:40;;;;;;;31.10;19.13;;;;;;;-1.80;92.87;100935.00;4779045;29;20180;-84
2021/12/23 10:51:56;;;;;;;33.60;19.02;;;;;;;-1.82;93.02;100941.97;4793550;29;20240;-84
2021/12/23 10:58:01;;;;;;;34.35;18.90;;;;;;;-1.74;93.02;100979.75;4793523;29;20176;-86
2021/12/23 11:00:23;;;;;;;29.38;18.05;;;;;;;-1.66;92.80;100978.13;4808760;29;20216;-85
2021/12/23 11:06:17;;;;;;;29.38;17.92;;;;;;;-1.55;92.43;100949.38;4793114;29;20271;-84
2021/12/23 11:32:23;;;;;;;30.50;18.35;;;;;;;-1.54;92.54;100966.88;4806015;29;20212;-86
2021/12/23 11:39:32;;;;;;;27.67;16.92;;;;;;;-1.38;90.19;100899.63;4805559;29;20243;-86
2021/12/23 11:42:05;;;;;;;26.30;16.55;;;;;;;-1.39;90.29;100900.50;4790893;29;20274;-85
2021/12/23 11:44:31;;;;;;;24.27;15.95;;;;;;;-1.32;90.80;100898.84;4790469;29;20179;-85
2021/12/23 11:47:02;;;;;;;25.23;17.38;;;;;;;-1.31;89.43;100922.50;4790705;29;20176;-85
2021/12/23 11:49:27;;;;;;;24.98;17.50;;;;;;;-1.30;89.52;100932.16;4806383;29;20677;-86
2021/12/23 11:51:56;;;;;;;24.02;17.38;;;;;;;-1.33;89.58;100916.34;4807757;29;20263;-86
2021/12/23 11:54:38;;;;;;;29.38;18.15;;;;;;;-1.27;90.13;100912.91;4791394;29;20259;-85
2021/12/23 11:57:13;;;;;;;24.73;16.80;;;;;;;-1.35;89.37;100912.81;4790860;29;20199;-85
2021/12/23 11:59:42;;;;;;;27.15;16.83;;;;;;;-1.31;89.67;100900.63;4790713;29;20227;-86
2021/12/23 12:02:15;;;;;;;29.83;17.42;;;;;;;-1.30;89.89;100883.97;4791563;29;20204;-85
2021/12/23 12:04:41;;;;;;;26.40;17.20;;;;;;;-1.32;89.92;100890.94;4806644;29;20253;-85
2021/12/23 12:07:16;;;;;;;24.77;16.98;;;;;;;-1.29;90.39;100870.84;4795433;29;20180;-86
2021/12/23 12:10:06;;;;;;;24.90;16.85;;;;;;;-1.29;90.11;100864.69;4798627;29;20250;-88
2021/12/23 12:12:33;;;;;;;25.83;17.40;;;;;;;-1.37;89.69;100856.72;4811660;29;20184;-87
2021/12/23 12:15:00;;;;;;;25.88;17.38;;;;;;;-1.35;89.97;100855.00;4798488;29;20187;-86
2021/12/23 12:17:25;;;;;;;26.80;17.63;;;;;;;-1.32;90.63;100857.66;4797650;29;20176;-87
2021/12/23 12:19:57;;;;;;;27.25;18.23;;;;;;;-1.34;90.12;100848.00;4796778;29;20219;-85